sensor_id;sensor_type;location;lat;lon;timestamp;P1;durP1;ratioP1;P2;durP2;ratioP2
10637;SDS011;47007;49.252;8.904;2024-01-27T00:00:06;8.43;;;7.57;;
10637;SDS011;47007;49.252;8.904;2024-01-27T00:00:52;9.70;;;7.13;;
10637;SDS011;47007;49.252;8.904;2024-01-27T00:01:33;8.70;;;6.30;;
10637;SDS011;47007;49.252;8.904;2024-01-27T00:02:15;8.25;;;5.88;;
10637;SDS011;47007;49.252;8.904;2024-01-27T00:02:57;8.15;;;6.22;;
10637;SDS011;47007;49.252;8.904;2024-01-27T00:03:39;8.45;;;6.35;;
10637;SDS011;47007;49.252;8.904;2024-01-27T00:04:21;11.07;;;7.35;;
10637;SDS011;47007;49.252;8.904;2024-01-27T00:05:02;8.90;;;6.57;;
10637;SDS011;47007;49.252;8.904;2024-01-27T00:05:44;6.32;;;5.30;;
10637;SDS011;47007;49.252;8.904;2024-01-27T00:06:26;10.10;;;6.22;;
10637;SDS011;47007;49.252;8.904;2024-01-27T00:07:08;8.88;;;7.05;;
10637;SDS011;47007;49.252;8.904;2024-01-27T00:07:50;9.00;;;7.28;;
10637;SDS011;47007;49.252;8.904;2024-01-27T00:08:32;8.85;;;6.65;;
10637;SDS011;47007;49.252;8.904;2024-01-27T00:09:14;9.27;;;6.72;;
10637;SDS011;47007;49.252;8.904;2024-01-27T00:09:55;9.70;;;7.05;;
10637;SDS011;47007;49.252;8.904;2024-01-27T00:10:37;10.15;;;7.57;;
10637;SDS011;47007;49.252;8.904;2024-01-27T00:11:19;9.70;;;7.07;;
10637;SDS011;47007;49.252;8.904;2024-01-27T00:12:03;11.00;;;7.13;;
10637;SDS011;47007;49.252;8.904;2024-01-27T00:12:45;8.55;;;6.82;;
10637;SDS011;47007;49.252;8.904;2024-01-27T00:13:27;8.75;;;6.53;;
10637;SDS011;47007;49.252;8.904;2024-01-27T00:14:09;9.20;;;6.35;;
10637;SDS011;47007;49.252;8.904;2024-01-27T00:14:50;7.43;;;5.93;;
10637;SDS011;47007;49.252;8.904;2024-01-27T00:15:32;9.60;;;7.25;;
10637;SDS011;47007;49.252;8.904;2024-01-27T00:16:14;13.30;;;7.57;;
10637;SDS011;47007;49.252;8.904;2024-01-27T00:16:56;9.90;;;7.07;;
10637;SDS011;47007;49.252;8.904;2024-01-27T00:17:38;10.13;;;6.30;;
10637;SDS011;47007;49.252;8.904;2024-01-27T00:18:21;10.10;;;6.13;;
10637;SDS011;47007;49.252;8.904;2024-01-27T00:19:02;9.23;;;7.10;;
10637;SDS011;47007;49.252;8.904;2024-01-27T00:19:44;8.38;;;6.78;;
10637;SDS011;47007;49.252;8.904;2024-01-27T00:20:26;12.55;;;8.13;;
10637;SDS011;47007;49.252;8.904;2024-01-27T00:21:08;8.38;;;6.82;;
10637;SDS011;47007;49.252;8.904;2024-01-27T00:21:49;8.90;;;6.68;;
10637;SDS011;47007;49.252;8.904;2024-01-27T00:22:31;7.90;;;6.05;;
10637;SDS011;47007;49.252;8.904;2024-01-27T00:23:13;11.35;;;6.32;;
10637;SDS011;47007;49.252;8.904;2024-01-27T00:23:54;7.32;;;5.80;;
10637;SDS011;47007;49.252;8.904;2024-01-27T00:24:42;10.93;;;7.55;;
10637;SDS011;47007;49.252;8.904;2024-01-27T00:25:24;11.63;;;7.00;;
10637;SDS011;47007;49.252;8.904;2024-01-27T00:26:06;7.35;;;6.30;;
10637;SDS011;47007;49.252;8.904;2024-01-27T00:26:48;7.03;;;5.43;;
10637;SDS011;47007;49.252;8.904;2024-01-27T00:27:30;5.63;;;4.57;;
10637;SDS011;47007;49.252;8.904;2024-01-27T00:28:11;6.93;;;5.10;;
10637;SDS011;47007;49.252;8.904;2024-01-27T00:28:53;6.85;;;4.32;;
10637;SDS011;47007;49.252;8.904;2024-01-27T00:29:35;6.93;;;5.07;;
10637;SDS011;47007;49.252;8.904;2024-01-27T00:30:16;7.03;;;5.20;;
10637;SDS011;47007;49.252;8.904;2024-01-27T00:30:58;8.40;;;5.47;;
10637;SDS011;47007;49.252;8.904;2024-01-27T00:31:40;6.82;;;4.85;;
10637;SDS011;47007;49.252;8.904;2024-01-27T00:32:22;7.32;;;4.93;;
10637;SDS011;47007;49.252;8.904;2024-01-27T00:33:04;9.38;;;6.60;;
10637;SDS011;47007;49.252;8.904;2024-01-27T00:33:46;9.63;;;6.45;;
10637;SDS011;47007;49.252;8.904;2024-01-27T00:34:28;9.68;;;5.93;;
10637;SDS011;47007;49.252;8.904;2024-01-27T00:35:10;10.38;;;6.15;;
10637;SDS011;47007;49.252;8.904;2024-01-27T00:35:55;9.68;;;6.65;;
10637;SDS011;47007;49.252;8.904;2024-01-27T00:36:37;8.55;;;6.35;;
10637;SDS011;47007;49.252;8.904;2024-01-27T00:37:19;10.60;;;6.60;;
10637;SDS011;47007;49.252;8.904;2024-01-27T00:38:01;20.83;;;10.13;;
10637;SDS011;47007;49.252;8.904;2024-01-27T00:38:42;8.47;;;6.30;;
10637;SDS011;47007;49.252;8.904;2024-01-27T00:39:24;8.55;;;6.35;;
10637;SDS011;47007;49.252;8.904;2024-01-27T00:40:09;7.47;;;5.90;;
10637;SDS011;47007;49.252;8.904;2024-01-27T00:40:52;7.50;;;6.10;;
10637;SDS011;47007;49.252;8.904;2024-01-27T00:41:34;8.95;;;5.35;;
10637;SDS011;47007;49.252;8.904;2024-01-27T00:42:16;6.28;;;5.07;;
10637;SDS011;47007;49.252;8.904;2024-01-27T00:42:59;7.15;;;5.47;;
10637;SDS011;47007;49.252;8.904;2024-01-27T00:43:43;7.43;;;5.43;;
10637;SDS011;47007;49.252;8.904;2024-01-27T00:44:25;9.50;;;6.25;;
10637;SDS011;47007;49.252;8.904;2024-01-27T00:45:07;8.40;;;6.32;;
10637;SDS011;47007;49.252;8.904;2024-01-27T00:45:49;10.48;;;6.50;;
10637;SDS011;47007;49.252;8.904;2024-01-27T00:46:31;8.70;;;5.57;;
10637;SDS011;47007;49.252;8.904;2024-01-27T00:47:12;7.05;;;5.15;;
10637;SDS011;47007;49.252;8.904;2024-01-27T00:47:54;9.68;;;5.70;;
10637;SDS011;47007;49.252;8.904;2024-01-27T00:48:36;7.50;;;5.72;;
10637;SDS011;47007;49.252;8.904;2024-01-27T00:49:18;6.07;;;5.00;;
10637;SDS011;47007;49.252;8.904;2024-01-27T00:50:00;6.50;;;5.55;;
10637;SDS011;47007;49.252;8.904;2024-01-27T00:50:42;7.00;;;5.18;;
10637;SDS011;47007;49.252;8.904;2024-01-27T00:51:23;6.80;;;5.35;;
10637;SDS011;47007;49.252;8.904;2024-01-27T00:52:05;7.95;;;5.82;;
10637;SDS011;47007;49.252;8.904;2024-01-27T00:52:47;7.72;;;5.25;;
10637;SDS011;47007;49.252;8.904;2024-01-27T00:53:29;8.05;;;5.72;;
10637;SDS011;47007;49.252;8.904;2024-01-27T00:54:10;7.32;;;5.45;;
10637;SDS011;47007;49.252;8.904;2024-01-27T00:54:52;7.80;;;5.70;;
10637;SDS011;47007;49.252;8.904;2024-01-27T00:55:33;6.50;;;5.80;;
10637;SDS011;47007;49.252;8.904;2024-01-27T00:56:15;7.30;;;5.45;;
10637;SDS011;47007;49.252;8.904;2024-01-27T00:56:57;8.18;;;5.90;;
10637;SDS011;47007;49.252;8.904;2024-01-27T00:57:39;7.32;;;5.80;;
10637;SDS011;47007;49.252;8.904;2024-01-27T00:58:21;7.15;;;5.63;;
10637;SDS011;47007;49.252;8.904;2024-01-27T00:59:02;6.90;;;5.88;;
10637;SDS011;47007;49.252;8.904;2024-01-27T00:59:44;8.20;;;5.72;;
10637;SDS011;47007;49.252;8.904;2024-01-27T01:00:27;8.43;;;5.68;;
10637;SDS011;47007;49.252;8.904;2024-01-27T01:01:09;10.30;;;5.63;;
10637;SDS011;47007;49.252;8.904;2024-01-27T01:01:51;7.70;;;6.07;;
10637;SDS011;47007;49.252;8.904;2024-01-27T01:02:32;7.60;;;5.60;;
10637;SDS011;47007;49.252;8.904;2024-01-27T01:03:14;7.45;;;5.60;;
10637;SDS011;47007;49.252;8.904;2024-01-27T01:03:56;6.53;;;5.60;;
10637;SDS011;47007;49.252;8.904;2024-01-27T01:04:38;6.97;;;4.80;;
10637;SDS011;47007;49.252;8.904;2024-01-27T01:05:19;7.70;;;4.90;;
10637;SDS011;47007;49.252;8.904;2024-01-27T01:06:01;5.93;;;4.88;;
10637;SDS011;47007;49.252;8.904;2024-01-27T01:06:43;6.72;;;5.50;;
10637;SDS011;47007;49.252;8.904;2024-01-27T01:07:25;4.93;;;4.43;;
10637;SDS011;47007;49.252;8.904;2024-01-27T01:08:06;6.63;;;4.65;;
10637;SDS011;47007;49.252;8.904;2024-01-27T01:08:48;5.72;;;4.65;;
10637;SDS011;47007;49.252;8.904;2024-01-27T01:09:30;8.45;;;4.28;;
10637;SDS011;47007;49.252;8.904;2024-01-27T01:10:13;6.35;;;4.63;;
10637;SDS011;47007;49.252;8.904;2024-01-27T01:10:55;5.82;;;4.88;;
10637;SDS011;47007;49.252;8.904;2024-01-27T01:11:37;5.97;;;4.60;;
10637;SDS011;47007;49.252;8.904;2024-01-27T01:12:21;6.68;;;4.25;;
10637;SDS011;47007;49.252;8.904;2024-01-27T01:13:03;4.20;;;3.80;;
10637;SDS011;47007;49.252;8.904;2024-01-27T01:13:44;4.80;;;4.20;;
10637;SDS011;47007;49.252;8.904;2024-01-27T01:14:26;5.88;;;3.97;;
10637;SDS011;47007;49.252;8.904;2024-01-27T01:15:08;6.20;;;4.47;;
10637;SDS011;47007;49.252;8.904;2024-01-27T01:15:50;5.80;;;4.47;;
10637;SDS011;47007;49.252;8.904;2024-01-27T01:16:31;4.97;;;3.97;;
10637;SDS011;47007;49.252;8.904;2024-01-27T01:17:13;5.28;;;3.55;;
10637;SDS011;47007;49.252;8.904;2024-01-27T01:17:55;4.55;;;3.58;;
10637;SDS011;47007;49.252;8.904;2024-01-27T01:18:37;6.47;;;4.38;;
10637;SDS011;47007;49.252;8.904;2024-01-27T01:19:19;4.40;;;3.85;;
10637;SDS011;47007;49.252;8.904;2024-01-27T01:20:01;4.45;;;3.45;;
10637;SDS011;47007;49.252;8.904;2024-01-27T01:20:43;5.75;;;3.90;;
10637;SDS011;47007;49.252;8.904;2024-01-27T01:21:25;5.13;;;3.92;;
10637;SDS011;47007;49.252;8.904;2024-01-27T01:22:07;5.93;;;3.77;;
10637;SDS011;47007;49.252;8.904;2024-01-27T01:22:53;5.35;;;4.28;;
10637;SDS011;47007;49.252;8.904;2024-01-27T01:23:35;5.22;;;3.70;;
10637;SDS011;47007;49.252;8.904;2024-01-27T01:24:16;5.13;;;3.95;;
10637;SDS011;47007;49.252;8.904;2024-01-27T01:24:58;4.30;;;3.67;;
10637;SDS011;47007;49.252;8.904;2024-01-27T01:25:40;4.55;;;3.70;;
10637;SDS011;47007;49.252;8.904;2024-01-27T01:26:21;5.93;;;3.60;;
10637;SDS011;47007;49.252;8.904;2024-01-27T01:27:03;4.30;;;3.75;;
10637;SDS011;47007;49.252;8.904;2024-01-27T01:27:45;5.18;;;3.90;;
10637;SDS011;47007;49.252;8.904;2024-01-27T01:28:27;5.70;;;3.60;;
10637;SDS011;47007;49.252;8.904;2024-01-27T01:29:10;5.70;;;3.72;;
10637;SDS011;47007;49.252;8.904;2024-01-27T01:29:51;4.18;;;3.78;;
10637;SDS011;47007;49.252;8.904;2024-01-27T01:30:34;4.75;;;3.65;;
10637;SDS011;47007;49.252;8.904;2024-01-27T01:31:17;5.28;;;3.88;;
10637;SDS011;47007;49.252;8.904;2024-01-27T01:31:59;5.28;;;4.10;;
10637;SDS011;47007;49.252;8.904;2024-01-27T01:32:43;6.45;;;3.92;;
10637;SDS011;47007;49.252;8.904;2024-01-27T01:33:24;6.20;;;4.22;;
10637;SDS011;47007;49.252;8.904;2024-01-27T01:34:06;5.88;;;4.10;;
10637;SDS011;47007;49.252;8.904;2024-01-27T01:34:48;5.72;;;4.20;;
10637;SDS011;47007;49.252;8.904;2024-01-27T01:35:30;5.30;;;4.07;;
10637;SDS011;47007;49.252;8.904;2024-01-27T01:36:12;5.07;;;3.97;;
10637;SDS011;47007;49.252;8.904;2024-01-27T01:36:53;5.05;;;4.13;;
10637;SDS011;47007;49.252;8.904;2024-01-27T01:37:35;4.82;;;4.00;;
10637;SDS011;47007;49.252;8.904;2024-01-27T01:38:17;6.38;;;4.55;;
10637;SDS011;47007;49.252;8.904;2024-01-27T01:38:59;7.05;;;4.13;;
10637;SDS011;47007;49.252;8.904;2024-01-27T01:39:40;6.10;;;4.18;;
10637;SDS011;47007;49.252;8.904;2024-01-27T01:40:22;4.45;;;3.88;;
10637;SDS011;47007;49.252;8.904;2024-01-27T01:41:04;5.32;;;4.10;;
10637;SDS011;47007;49.252;8.904;2024-01-27T01:41:45;3.80;;;3.40;;
10637;SDS011;47007;49.252;8.904;2024-01-27T01:42:27;5.22;;;4.32;;
10637;SDS011;47007;49.252;8.904;2024-01-27T01:43:10;3.92;;;3.53;;
10637;SDS011;47007;49.252;8.904;2024-01-27T01:43:55;3.63;;;3.30;;
10637;SDS011;47007;49.252;8.904;2024-01-27T01:44:37;4.85;;;3.75;;
10637;SDS011;47007;49.252;8.904;2024-01-27T01:45:18;4.50;;;3.67;;
10637;SDS011;47007;49.252;8.904;2024-01-27T01:46:01;5.85;;;3.90;;
10637;SDS011;47007;49.252;8.904;2024-01-27T01:46:44;5.97;;;3.95;;
10637;SDS011;47007;49.252;8.904;2024-01-27T01:47:26;4.07;;;3.67;;
10637;SDS011;47007;49.252;8.904;2024-01-27T01:48:09;5.35;;;4.07;;
10637;SDS011;47007;49.252;8.904;2024-01-27T01:48:51;5.57;;;3.40;;
10637;SDS011;47007;49.252;8.904;2024-01-27T01:49:33;5.75;;;3.85;;
10637;SDS011;47007;49.252;8.904;2024-01-27T01:50:17;5.60;;;3.63;;
10637;SDS011;47007;49.252;8.904;2024-01-27T01:50:59;5.55;;;4.10;;
10637;SDS011;47007;49.252;8.904;2024-01-27T01:51:42;6.68;;;3.67;;
10637;SDS011;47007;49.252;8.904;2024-01-27T01:52:23;5.00;;;4.00;;
10637;SDS011;47007;49.252;8.904;2024-01-27T01:53:05;5.63;;;4.40;;
10637;SDS011;47007;49.252;8.904;2024-01-27T01:53:47;5.15;;;3.80;;
10637;SDS011;47007;49.252;8.904;2024-01-27T01:54:30;6.18;;;4.40;;
10637;SDS011;47007;49.252;8.904;2024-01-27T01:55:14;5.38;;;4.30;;
10637;SDS011;47007;49.252;8.904;2024-01-27T01:55:56;4.22;;;3.67;;
10637;SDS011;47007;49.252;8.904;2024-01-27T01:56:38;4.53;;;3.92;;
10637;SDS011;47007;49.252;8.904;2024-01-27T01:57:20;7.40;;;5.00;;
10637;SDS011;47007;49.252;8.904;2024-01-27T01:58:02;6.53;;;4.45;;
10637;SDS011;47007;49.252;8.904;2024-01-27T01:58:44;6.27;;;4.60;;
10637;SDS011;47007;49.252;8.904;2024-01-27T01:59:26;6.63;;;4.70;;
10637;SDS011;47007;49.252;8.904;2024-01-27T02:00:08;6.07;;;4.23;;
10637;SDS011;47007;49.252;8.904;2024-01-27T02:00:53;4.75;;;4.13;;
10637;SDS011;47007;49.252;8.904;2024-01-27T02:01:35;4.63;;;4.22;;
10637;SDS011;47007;49.252;8.904;2024-01-27T02:02:17;6.78;;;4.20;;
10637;SDS011;47007;49.252;8.904;2024-01-27T02:02:59;4.73;;;4.17;;
10637;SDS011;47007;49.252;8.904;2024-01-27T02:03:50;5.50;;;4.45;;
10637;SDS011;47007;49.252;8.904;2024-01-27T02:04:42;5.13;;;4.43;;
10637;SDS011;47007;49.252;8.904;2024-01-27T02:05:24;6.43;;;4.17;;
10637;SDS011;47007;49.252;8.904;2024-01-27T02:06:06;4.55;;;3.72;;
10637;SDS011;47007;49.252;8.904;2024-01-27T02:06:48;5.10;;;4.53;;
10637;SDS011;47007;49.252;8.904;2024-01-27T02:07:30;5.70;;;3.85;;
10637;SDS011;47007;49.252;8.904;2024-01-27T02:08:12;5.68;;;4.50;;
10637;SDS011;47007;49.252;8.904;2024-01-27T02:08:53;5.53;;;4.47;;
10637;SDS011;47007;49.252;8.904;2024-01-27T02:09:35;6.53;;;4.50;;
10637;SDS011;47007;49.252;8.904;2024-01-27T02:10:19;5.33;;;4.40;;
10637;SDS011;47007;49.252;8.904;2024-01-27T02:11:01;7.40;;;4.67;;
10637;SDS011;47007;49.252;8.904;2024-01-27T02:11:44;6.55;;;4.22;;
10637;SDS011;47007;49.252;8.904;2024-01-27T02:12:26;5.32;;;4.15;;
10637;SDS011;47007;49.252;8.904;2024-01-27T02:13:17;6.00;;;4.68;;
10637;SDS011;47007;49.252;8.904;2024-01-27T02:14:02;6.07;;;4.23;;
10637;SDS011;47007;49.252;8.904;2024-01-27T02:14:45;5.78;;;4.30;;
10637;SDS011;47007;49.252;8.904;2024-01-27T02:15:26;5.53;;;4.13;;
10637;SDS011;47007;49.252;8.904;2024-01-27T02:16:08;4.95;;;4.38;;
10637;SDS011;47007;49.252;8.904;2024-01-27T02:16:50;6.55;;;4.43;;
10637;SDS011;47007;49.252;8.904;2024-01-27T02:17:32;4.43;;;3.70;;
10637;SDS011;47007;49.252;8.904;2024-01-27T02:18:14;6.05;;;4.13;;
10637;SDS011;47007;49.252;8.904;2024-01-27T02:18:56;7.13;;;4.77;;
10637;SDS011;47007;49.252;8.904;2024-01-27T02:19:38;5.13;;;4.28;;
10637;SDS011;47007;49.252;8.904;2024-01-27T02:20:20;6.47;;;4.45;;
10637;SDS011;47007;49.252;8.904;2024-01-27T02:21:02;5.15;;;4.30;;
10637;SDS011;47007;49.252;8.904;2024-01-27T02:21:44;5.75;;;4.05;;
10637;SDS011;47007;49.252;8.904;2024-01-27T02:22:25;6.22;;;4.30;;
10637;SDS011;47007;49.252;8.904;2024-01-27T02:23:07;6.20;;;3.92;;
10637;SDS011;47007;49.252;8.904;2024-01-27T02:23:49;5.17;;;4.20;;
10637;SDS011;47007;49.252;8.904;2024-01-27T02:24:31;5.95;;;4.72;;
10637;SDS011;47007;49.252;8.904;2024-01-27T02:25:12;6.03;;;4.25;;
10637;SDS011;47007;49.252;8.904;2024-01-27T02:25:54;6.18;;;4.70;;
10637;SDS011;47007;49.252;8.904;2024-01-27T02:26:36;4.95;;;4.07;;
10637;SDS011;47007;49.252;8.904;2024-01-27T02:27:18;6.47;;;4.43;;
10637;SDS011;47007;49.252;8.904;2024-01-27T02:28:00;5.63;;;4.13;;
10637;SDS011;47007;49.252;8.904;2024-01-27T02:28:44;5.00;;;3.80;;
10637;SDS011;47007;49.252;8.904;2024-01-27T02:29:25;5.13;;;4.00;;
10637;SDS011;47007;49.252;8.904;2024-01-27T02:30:09;4.18;;;3.67;;
10637;SDS011;47007;49.252;8.904;2024-01-27T02:30:51;5.63;;;4.00;;
10637;SDS011;47007;49.252;8.904;2024-01-27T02:31:32;5.43;;;3.97;;
10637;SDS011;47007;49.252;8.904;2024-01-27T02:32:14;4.95;;;3.75;;
10637;SDS011;47007;49.252;8.904;2024-01-27T02:32:56;6.63;;;3.80;;
10637;SDS011;47007;49.252;8.904;2024-01-27T02:33:39;4.53;;;3.83;;
10637;SDS011;47007;49.252;8.904;2024-01-27T02:34:21;5.63;;;4.37;;
10637;SDS011;47007;49.252;8.904;2024-01-27T02:35:03;5.13;;;4.05;;
10637;SDS011;47007;49.252;8.904;2024-01-27T02:35:45;4.72;;;3.85;;
10637;SDS011;47007;49.252;8.904;2024-01-27T02:36:27;4.05;;;3.53;;
10637;SDS011;47007;49.252;8.904;2024-01-27T02:37:09;5.32;;;4.35;;
10637;SDS011;47007;49.252;8.904;2024-01-27T02:37:51;6.60;;;4.07;;
10637;SDS011;47007;49.252;8.904;2024-01-27T02:38:32;5.53;;;4.55;;
10637;SDS011;47007;49.252;8.904;2024-01-27T02:39:14;7.00;;;4.53;;
10637;SDS011;47007;49.252;8.904;2024-01-27T02:39:56;6.75;;;4.53;;
10637;SDS011;47007;49.252;8.904;2024-01-27T02:40:38;5.43;;;4.15;;
10637;SDS011;47007;49.252;8.904;2024-01-27T02:41:20;4.78;;;4.05;;
10637;SDS011;47007;49.252;8.904;2024-01-27T02:42:02;5.75;;;3.78;;
10637;SDS011;47007;49.252;8.904;2024-01-27T02:42:44;5.85;;;4.40;;
10637;SDS011;47007;49.252;8.904;2024-01-27T02:43:25;7.50;;;4.13;;
10637;SDS011;47007;49.252;8.904;2024-01-27T02:44:07;5.38;;;4.25;;
10637;SDS011;47007;49.252;8.904;2024-01-27T02:44:49;7.18;;;4.45;;
10637;SDS011;47007;49.252;8.904;2024-01-27T02:45:30;6.85;;;4.38;;
10637;SDS011;47007;49.252;8.904;2024-01-27T02:46:12;9.57;;;4.95;;
10637;SDS011;47007;49.252;8.904;2024-01-27T02:46:56;5.00;;;4.35;;
10637;SDS011;47007;49.252;8.904;2024-01-27T02:47:38;6.45;;;4.18;;
10637;SDS011;47007;49.252;8.904;2024-01-27T02:48:20;7.57;;;4.50;;
10637;SDS011;47007;49.252;8.904;2024-01-27T02:49:02;6.03;;;4.53;;
10637;SDS011;47007;49.252;8.904;2024-01-27T02:49:43;6.93;;;5.03;;
10637;SDS011;47007;49.252;8.904;2024-01-27T02:50:25;5.90;;;4.40;;
10637;SDS011;47007;49.252;8.904;2024-01-27T02:51:07;8.40;;;4.50;;
10637;SDS011;47007;49.252;8.904;2024-01-27T02:51:49;6.93;;;4.60;;
10637;SDS011;47007;49.252;8.904;2024-01-27T02:52:31;6.50;;;4.00;;
10637;SDS011;47007;49.252;8.904;2024-01-27T02:53:13;5.55;;;4.43;;
10637;SDS011;47007;49.252;8.904;2024-01-27T02:53:55;4.97;;;4.35;;
10637;SDS011;47007;49.252;8.904;2024-01-27T02:54:37;4.93;;;4.18;;
10637;SDS011;47007;49.252;8.904;2024-01-27T02:55:19;5.60;;;4.25;;
10637;SDS011;47007;49.252;8.904;2024-01-27T02:56:00;6.80;;;4.97;;
10637;SDS011;47007;49.252;8.904;2024-01-27T02:56:42;6.43;;;5.13;;
10637;SDS011;47007;49.252;8.904;2024-01-27T02:57:24;6.20;;;4.85;;
10637;SDS011;47007;49.252;8.904;2024-01-27T02:58:06;7.07;;;4.32;;
10637;SDS011;47007;49.252;8.904;2024-01-27T02:58:48;6.50;;;4.53;;
10637;SDS011;47007;49.252;8.904;2024-01-27T02:59:29;5.00;;;4.30;;
10637;SDS011;47007;49.252;8.904;2024-01-27T03:00:11;6.72;;;5.20;;
10637;SDS011;47007;49.252;8.904;2024-01-27T03:00:53;6.35;;;5.28;;
10637;SDS011;47007;49.252;8.904;2024-01-27T03:01:34;7.65;;;5.43;;
10637;SDS011;47007;49.252;8.904;2024-01-27T03:02:16;7.40;;;5.60;;
10637;SDS011;47007;49.252;8.904;2024-01-27T03:02:58;7.37;;;5.80;;
10637;SDS011;47007;49.252;8.904;2024-01-27T03:03:40;7.07;;;5.40;;
10637;SDS011;47007;49.252;8.904;2024-01-27T03:04:22;8.38;;;5.55;;
10637;SDS011;47007;49.252;8.904;2024-01-27T03:05:04;7.20;;;5.22;;
10637;SDS011;47007;49.252;8.904;2024-01-27T03:05:46;5.57;;;4.70;;
10637;SDS011;47007;49.252;8.904;2024-01-27T03:06:28;8.02;;;4.70;;
10637;SDS011;47007;49.252;8.904;2024-01-27T03:07:09;6.47;;;5.13;;
10637;SDS011;47007;49.252;8.904;2024-01-27T03:07:51;6.20;;;4.97;;
10637;SDS011;47007;49.252;8.904;2024-01-27T03:08:33;5.85;;;4.55;;
10637;SDS011;47007;49.252;8.904;2024-01-27T03:09:14;5.22;;;4.43;;
10637;SDS011;47007;49.252;8.904;2024-01-27T03:09:56;6.95;;;5.20;;
10637;SDS011;47007;49.252;8.904;2024-01-27T03:10:38;7.37;;;5.63;;
10637;SDS011;47007;49.252;8.904;2024-01-27T03:11:20;6.05;;;4.93;;
10637;SDS011;47007;49.252;8.904;2024-01-27T03:12:02;7.63;;;4.97;;
10637;SDS011;47007;49.252;8.904;2024-01-27T03:12:44;6.20;;;4.88;;
10637;SDS011;47007;49.252;8.904;2024-01-27T03:13:26;6.75;;;5.50;;
10637;SDS011;47007;49.252;8.904;2024-01-27T03:14:08;7.20;;;4.90;;
10637;SDS011;47007;49.252;8.904;2024-01-27T03:14:50;8.07;;;5.22;;
10637;SDS011;47007;49.252;8.904;2024-01-27T03:15:32;7.20;;;5.25;;
10637;SDS011;47007;49.252;8.904;2024-01-27T03:16:15;6.88;;;5.28;;
10637;SDS011;47007;49.252;8.904;2024-01-27T03:16:58;7.03;;;5.03;;
10637;SDS011;47007;49.252;8.904;2024-01-27T03:17:40;6.97;;;4.88;;
10637;SDS011;47007;49.252;8.904;2024-01-27T03:18:22;6.10;;;5.13;;
10637;SDS011;47007;49.252;8.904;2024-01-27T03:19:06;4.70;;;4.23;;
10637;SDS011;47007;49.252;8.904;2024-01-27T03:19:48;6.45;;;5.35;;
10637;SDS011;47007;49.252;8.904;2024-01-27T03:20:30;5.85;;;4.97;;
10637;SDS011;47007;49.252;8.904;2024-01-27T03:21:15;5.22;;;4.60;;
10637;SDS011;47007;49.252;8.904;2024-01-27T03:21:56;7.32;;;4.88;;
10637;SDS011;47007;49.252;8.904;2024-01-27T03:22:38;7.28;;;4.68;;
10637;SDS011;47007;49.252;8.904;2024-01-27T03:23:22;6.07;;;4.63;;
10637;SDS011;47007;49.252;8.904;2024-01-27T03:24:03;5.43;;;3.92;;
10637;SDS011;47007;49.252;8.904;2024-01-27T03:24:45;7.37;;;4.80;;
10637;SDS011;47007;49.252;8.904;2024-01-27T03:25:27;6.03;;;4.43;;
10637;SDS011;47007;49.252;8.904;2024-01-27T03:26:09;5.50;;;4.35;;
10637;SDS011;47007;49.252;8.904;2024-01-27T03:26:50;7.13;;;4.57;;
10637;SDS011;47007;49.252;8.904;2024-01-27T03:27:32;5.72;;;4.53;;
10637;SDS011;47007;49.252;8.904;2024-01-27T03:28:14;5.70;;;4.70;;
10637;SDS011;47007;49.252;8.904;2024-01-27T03:28:57;6.05;;;4.57;;
10637;SDS011;47007;49.252;8.904;2024-01-27T03:29:39;5.80;;;4.22;;
10637;SDS011;47007;49.252;8.904;2024-01-27T03:30:21;7.30;;;4.55;;
10637;SDS011;47007;49.252;8.904;2024-01-27T03:31:03;5.00;;;4.50;;
10637;SDS011;47007;49.252;8.904;2024-01-27T03:31:44;5.00;;;4.13;;
10637;SDS011;47007;49.252;8.904;2024-01-27T03:32:26;4.68;;;4.10;;
10637;SDS011;47007;49.252;8.904;2024-01-27T03:33:08;5.43;;;4.05;;
10637;SDS011;47007;49.252;8.904;2024-01-27T03:33:52;4.73;;;3.90;;
10637;SDS011;47007;49.252;8.904;2024-01-27T03:34:34;5.43;;;3.90;;
10637;SDS011;47007;49.252;8.904;2024-01-27T03:35:16;6.23;;;3.83;;
10637;SDS011;47007;49.252;8.904;2024-01-27T03:35:57;7.13;;;4.22;;
10637;SDS011;47007;49.252;8.904;2024-01-27T03:36:39;7.70;;;4.60;;
10637;SDS011;47007;49.252;8.904;2024-01-27T03:37:22;5.07;;;4.03;;
10637;SDS011;47007;49.252;8.904;2024-01-27T03:38:05;5.30;;;3.60;;
10637;SDS011;47007;49.252;8.904;2024-01-27T03:38:47;5.87;;;4.00;;
10637;SDS011;47007;49.252;8.904;2024-01-27T03:39:28;5.40;;;4.10;;
10637;SDS011;47007;49.252;8.904;2024-01-27T03:40:10;5.50;;;4.17;;
10637;SDS011;47007;49.252;8.904;2024-01-27T03:40:52;4.70;;;3.70;;
10637;SDS011;47007;49.252;8.904;2024-01-27T03:41:35;4.82;;;3.70;;
10637;SDS011;47007;49.252;8.904;2024-01-27T03:42:17;4.72;;;3.97;;
10637;SDS011;47007;49.252;8.904;2024-01-27T03:42:58;5.33;;;4.00;;
10637;SDS011;47007;49.252;8.904;2024-01-27T03:43:40;8.00;;;4.60;;
10637;SDS011;47007;49.252;8.904;2024-01-27T03:44:22;4.93;;;3.53;;
10637;SDS011;47007;49.252;8.904;2024-01-27T03:45:03;4.87;;;3.63;;
10637;SDS011;47007;49.252;8.904;2024-01-27T03:45:45;6.13;;;4.10;;
10637;SDS011;47007;49.252;8.904;2024-01-27T03:46:27;4.18;;;3.63;;
10637;SDS011;47007;49.252;8.904;2024-01-27T03:47:09;4.53;;;3.75;;
10637;SDS011;47007;49.252;8.904;2024-01-27T03:47:51;5.40;;;4.00;;
10637;SDS011;47007;49.252;8.904;2024-01-27T03:48:33;5.10;;;3.78;;
10637;SDS011;47007;49.252;8.904;2024-01-27T03:49:16;7.30;;;4.07;;
10637;SDS011;47007;49.252;8.904;2024-01-27T03:49:58;6.00;;;3.70;;
10637;SDS011;47007;49.252;8.904;2024-01-27T03:50:40;4.43;;;3.43;;
10637;SDS011;47007;49.252;8.904;2024-01-27T03:51:22;6.00;;;3.72;;
10637;SDS011;47007;49.252;8.904;2024-01-27T03:52:04;7.70;;;4.57;;
10637;SDS011;47007;49.252;8.904;2024-01-27T03:52:46;6.83;;;4.67;;
10637;SDS011;47007;49.252;8.904;2024-01-27T03:53:28;7.72;;;4.53;;
10637;SDS011;47007;49.252;8.904;2024-01-27T03:54:10;7.27;;;4.60;;
10637;SDS011;47007;49.252;8.904;2024-01-27T03:54:51;8.03;;;4.30;;
10637;SDS011;47007;49.252;8.904;2024-01-27T03:55:33;5.73;;;4.63;;
10637;SDS011;47007;49.252;8.904;2024-01-27T03:56:15;6.13;;;4.40;;
10637;SDS011;47007;49.252;8.904;2024-01-27T03:56:57;7.23;;;4.97;;
10637;SDS011;47007;49.252;8.904;2024-01-27T03:57:39;5.95;;;4.82;;
10637;SDS011;47007;49.252;8.904;2024-01-27T03:58:20;7.40;;;5.07;;
10637;SDS011;47007;49.252;8.904;2024-01-27T03:59:02;4.82;;;4.30;;
10637;SDS011;47007;49.252;8.904;2024-01-27T03:59:46;7.83;;;5.37;;
10637;SDS011;47007;49.252;8.904;2024-01-27T04:00:27;7.30;;;5.27;;
10637;SDS011;47007;49.252;8.904;2024-01-27T04:01:11;7.68;;;5.25;;
10637;SDS011;47007;49.252;8.904;2024-01-27T04:01:54;7.37;;;5.10;;
10637;SDS011;47007;49.252;8.904;2024-01-27T04:02:37;6.97;;;5.07;;
10637;SDS011;47007;49.252;8.904;2024-01-27T04:03:18;7.28;;;5.45;;
10637;SDS011;47007;49.252;8.904;2024-01-27T04:04:00;9.02;;;5.78;;
10637;SDS011;47007;49.252;8.904;2024-01-27T04:04:42;8.03;;;5.47;;
10637;SDS011;47007;49.252;8.904;2024-01-27T04:05:24;5.75;;;5.00;;
10637;SDS011;47007;49.252;8.904;2024-01-27T04:06:06;6.13;;;5.27;;
10637;SDS011;47007;49.252;8.904;2024-01-27T04:06:47;7.18;;;5.97;;
10637;SDS011;47007;49.252;8.904;2024-01-27T04:07:29;9.63;;;6.20;;
10637;SDS011;47007;49.252;8.904;2024-01-27T04:08:11;8.88;;;5.82;;
10637;SDS011;47007;49.252;8.904;2024-01-27T04:08:52;6.90;;;5.05;;
10637;SDS011;47007;49.252;8.904;2024-01-27T04:09:34;6.18;;;4.97;;
10637;SDS011;47007;49.252;8.904;2024-01-27T04:10:17;4.70;;;4.10;;
10637;SDS011;47007;49.252;8.904;2024-01-27T04:10:59;4.03;;;3.63;;
10637;SDS011;47007;49.252;8.904;2024-01-27T04:11:41;4.73;;;3.93;;
10637;SDS011;47007;49.252;8.904;2024-01-27T04:12:23;5.78;;;4.30;;
10637;SDS011;47007;49.252;8.904;2024-01-27T04:13:04;5.57;;;4.25;;
10637;SDS011;47007;49.252;8.904;2024-01-27T04:13:48;4.72;;;4.20;;